Time;durP1;ratioP1;P1;durP2;ratioP2;P2;SDS_P1;SDS_P2;PMS_P1;PMS_P2;Temp;Humidity;BMP_temperature;BMP_pressure;BME280_temperature;BME280_humidity;BME280_pressure;Samples;Min_cycle;Max_cycle;Signal;HPM_P1;HPM_P2
2022/09/25 00:01:24;;;;;;;1.00;0.90;;;11.30;99.90;;;;;;5071893;28;20443;-77
2022/09/25 00:03:51;;;;;;;0.70;0.70;;;11.30;99.90;;;;;;5071621;28;20431;-78
2022/09/25 00:06:22;;;;;;;0.95;0.90;;;11.40;99.90;;;;;;5072105;28;20432;-78
2022/09/25 00:08:49;;;;;;;0.75;0.75;;;11.40;99.90;;;;;;5066135;28;20427;-78
2022/09/25 00:11:19;;;;;;;0.60;0.52;;;11.40;99.90;;;;;;5071049;28;20894;-77
2022/09/25 00:13:46;;;;;;;0.85;0.85;;;11.40;99.90;;;;;;5071585;28;20431;-77
2022/09/25 00:16:15;;;;;;;0.95;0.95;;;11.40;99.90;;;;;;5072008;28;20423;-78
2022/09/25 00:21:30;;;;;;;1.00;1.00;;;11.40;99.90;;;;;;5051650;28;20429;-78
2022/09/25 00:24:02;;;;;;;0.75;0.55;;;11.40;99.90;;;;;;5050373;28;20543;-77
2022/09/25 00:26:31;;;;;;;0.57;0.57;;;11.40;99.90;;;;;;5050480;28;20425;-78
2022/09/25 00:29:04;;;;;;;1.30;0.85;;;11.40;99.90;;;;;;5051816;28;20462;-78
2022/09/25 00:31:31;;;;;;;1.30;1.20;;;11.40;99.90;;;;;;5053504;28;20521;-78
2022/09/25 00:34:03;;;;;;;1.10;1.10;;;11.40;99.90;;;;;;5070193;28;20462;-78
2022/09/25 00:36:31;;;;;;;1.30;1.08;;;11.40;99.90;;;;;;5071533;28;20493;-78
2022/09/25 00:38:58;;;;;;;1.25;0.98;;;11.40;99.90;;;;;;5071738;28;20431;-78
2022/09/25 00:41:35;;;;;;;0.73;0.73;;;11.40;99.90;;;;;;5071489;28;20432;-78
2022/09/25 00:44:23;;;;;;;0.80;0.80;;;11.40;99.90;;;;;;5071234;28;20553;-78
2022/09/25 00:46:49;;;;;;;1.48;0.90;;;11.40;99.90;;;;;;5069616;28;20439;-77
2022/09/25 00:49:20;;;;;;;0.55;0.55;;;11.40;99.90;;;;;;5069912;28;20893;-77
2022/09/25 00:51:56;;;;;;;0.70;0.70;;;11.50;99.90;;;;;;5071462;28;20423;-77
2022/09/25 00:54:32;;;;;;;0.77;0.77;;;11.40;99.90;;;;;;5071075;28;20427;-77
2022/09/25 00:57:02;;;;;;;1.27;0.93;;;11.40;99.90;;;;;;5071591;28;20424;-77
2022/09/25 00:59:33;;;;;;;1.60;1.00;;;11.40;99.90;;;;;;5070213;28;20434;-78
2022/09/25 01:02:00;;;;;;;1.07;1.00;;;11.40;99.90;;;;;;5071809;28;20427;-78
2022/09/25 01:04:33;;;;;;;1.38;1.00;;;11.40;99.90;;;;;;5071161;28;20514;-78
2022/09/25 01:07:01;;;;;;;1.38;1.08;;;11.40;99.90;;;;;;5074988;28;20435;-78
2022/09/25 01:09:28;;;;;;;1.10;1.05;;;11.40;99.90;;;;;;5075431;28;20434;-78
2022/09/25 01:11:55;;;;;;;1.33;1.00;;;11.50;99.90;;;;;;5075220;28;20431;-78
2022/09/25 01:14:38;;;;;;;2.30;1.05;;;11.40;99.90;;;;;;5073716;28;20434;-78
2022/09/25 01:17:28;;;;;;;0.43;0.43;;;11.40;99.90;;;;;;5073452;28;20426;-77
2022/09/25 01:20:14;;;;;;;0.68;0.68;;;11.40;99.90;;;;;;5075377;28;20431;-78
2022/09/25 01:23:02;;;;;;;1.30;1.07;;;11.40;99.90;;;;;;5075519;28;20842;-78
2022/09/25 01:25:40;;;;;;;1.13;1.02;;;11.40;99.90;;;;;;5075084;28;20427;-78
2022/09/25 01:28:19;;;;;;;1.13;1.13;;;11.40;99.90;;;;;;5075313;28;20428;-78
2022/09/25 01:30:51;;;;;;;0.88;0.88;;;11.40;99.90;;;;;;5075198;28;20431;-78
2022/09/25 01:33:35;;;;;;;1.17;0.90;;;11.40;99.90;;;;;;5075119;28;21000;-78
2022/09/25 01:36:07;;;;;;;0.77;0.77;;;11.50;99.90;;;;;;5075203;28;20439;-78
2022/09/25 01:38:43;;;;;;;0.80;0.80;;;11.50;99.90;;;;;;5074725;28;20427;-78
2022/09/25 01:41:26;;;;;;;0.75;0.75;;;11.50;99.90;;;;;;5074953;28;20445;-78
2022/09/25 01:44:01;;;;;;;0.68;0.68;;;11.50;99.90;;;;;;5074300;28;20435;-77
2022/09/25 01:46:33;;;;;;;1.23;1.15;;;11.50;99.90;;;;;;5074917;28;20442;-77
2022/09/25 01:49:11;;;;;;;2.05;1.75;;;11.50;99.90;;;;;;5074737;28;20430;-78
2022/09/25 01:51:42;;;;;;;0.90;0.90;;;11.50;99.90;;;;;;5072409;28;20443;-76
2022/09/25 01:54:15;;;;;;;0.75;0.75;;;11.50;99.90;;;;;;5073932;28;20431;-76
2022/09/25 01:56:48;;;;;;;1.45;1.35;;;11.50;99.90;;;;;;5074025;28;20435;-76
2022/09/25 01:59:42;;;;;;;0.90;0.88;;;11.50;99.90;;;;;;5071834;28;20431;-76
2022/09/25 02:02:13;;;;;;;1.05;1.05;;;11.40;99.90;;;;;;5071567;28;20438;-76
2022/09/25 02:04:56;;;;;;;1.35;1.25;;;11.40;99.90;;;;;;5071308;28;20431;-76
2022/09/25 02:07:29;;;;;;;1.30;1.10;;;11.40;99.90;;;;;;5071558;28;20851;-76
2022/09/25 02:10:07;;;;;;;0.82;0.77;;;11.40;99.90;;;;;;5071350;28;20423;-76
2022/09/25 02:12:39;;;;;;;1.83;1.38;;;11.40;99.90;;;;;;5072786;28;20435;-76
2022/09/25 02:15:16;;;;;;;1.40;1.10;;;11.40;99.90;;;;;;5072553;28;20431;-75
2022/09/25 02:20:57;;;;;;;2.00;1.53;;;11.40;99.90;;;;;;5072532;28;20427;-75
2022/09/25 02:23:45;;;;;;;1.67;1.58;;;11.40;99.90;;;;;;5070890;28;20786;-75
2022/09/25 02:26:21;;;;;;;3.38;1.67;;;11.40;99.90;;;;;;5072238;28;20432;-75
2022/09/25 02:28:48;;;;;;;1.58;1.13;;;11.40;99.90;;;;;;5072061;28;20423;-74
2022/09/25 02:31:16;;;;;;;1.25;1.15;;;11.40;99.90;;;;;;5072462;28;20477;-74
2022/09/25 02:33:46;;;;;;;1.53;1.43;;;11.40;99.90;;;;;;5070494;28;20433;-74
2022/09/25 02:36:18;;;;;;;1.33;1.23;;;11.40;99.90;;;;;;5072040;28;20428;-74
2022/09/25 02:38:46;;;;;;;2.42;1.40;;;11.40;99.90;;;;;;5072114;28;20430;-74
2022/09/25 02:41:53;;;;;;;1.48;0.95;;;11.40;99.90;;;;;;5071964;28;20431;-74
2022/09/25 02:44:42;;;;;;;1.77;1.52;;;11.40;99.90;;;;;;5032072;28;20921;-74
2022/09/25 02:47:13;;;;;;;3.22;1.65;;;11.50;99.90;;;;;;5071975;28;20482;-74
2022/09/25 02:49:50;;;;;;;2.27;1.17;;;11.50;99.90;;;;;;5071702;28;20424;-74
2022/09/25 02:52:32;;;;;;;2.08;1.58;;;11.50;99.90;;;;;;5071698;28;20485;-74
2022/09/25 02:55:09;;;;;;;1.42;1.33;;;11.50;99.90;;;;;;5071952;28;20890;-74
2022/09/25 02:57:45;;;;;;;2.00;1.77;;;11.50;99.90;;;;;;5073040;28;20510;-74
2022/09/25 03:00:12;;;;;;;1.75;1.40;;;11.50;99.90;;;;;;5071130;28;20423;-74
2022/09/25 03:02:41;;;;;;;2.00;1.55;;;11.50;99.90;;;;;;5073212;28;20427;-75
2022/09/25 03:05:12;;;;;;;1.30;1.20;;;11.50;99.90;;;;;;5071381;28;20477;-75
2022/09/25 03:10:27;;;;;;;2.55;1.17;;;11.40;99.90;;;;;;5071727;28;20850;-75
2022/09/25 03:12:54;;;;;;;1.67;1.58;;;11.40;99.90;;;;;;5071544;28;20427;-75
2022/09/25 03:15:24;;;;;;;1.17;1.13;;;11.40;99.90;;;;;;5070120;28;20905;-75
2022/09/25 03:17:51;;;;;;;1.70;1.40;;;11.40;99.90;;;;;;5070079;28;20427;-75
2022/09/25 03:20:18;;;;;;;1.40;1.30;;;11.40;99.90;;;;;;5071439;28;20437;-74
2022/09/25 03:22:47;;;;;;;1.60;1.50;;;11.40;99.90;;;;;;5070732;28;20477;-74
2022/09/25 03:25:15;;;;;;;1.48;1.48;;;11.40;99.90;;;;;;5071074;28;20428;-75
2022/09/25 03:27:42;;;;;;;1.73;1.63;;;11.40;99.90;;;;;;5070999;28;20426;-75
2022/09/25 03:30:09;;;;;;;1.15;1.15;;;11.40;99.90;;;;;;5071508;28;20451;-75
2022/09/25 03:32:37;;;;;;;1.90;1.50;;;11.50;99.90;;;;;;5071314;28;20420;-74
2022/09/25 03:35:05;;;;;;;1.77;1.65;;;11.50;99.90;;;;;;5070854;28;20434;-75
2022/09/25 03:37:32;;;;;;;1.52;1.48;;;11.50;99.90;;;;;;5069726;28;20428;-75
2022/09/25 03:40:00;;;;;;;1.83;1.38;;;11.50;99.90;;;;;;5071180;28;20423;-74
2022/09/25 03:42:27;;;;;;;1.80;1.67;;;11.50;99.90;;;;;;5071116;28;20435;-75
2022/09/25 03:44:53;;;;;;;1.30;1.20;;;11.50;99.90;;;;;;5070769;28;20427;-75
2022/09/25 03:47:20;;;;;;;1.67;1.58;;;11.50;99.90;;;;;;5070816;28;20551;-75
2022/09/25 03:49:47;;;;;;;1.48;1.20;;;11.50;99.90;;;;;;5070866;28;20427;-75
2022/09/25 03:52:13;;;;;;;2.17;2.00;;;11.50;99.90;;;;;;5070680;28;20427;-75
2022/09/25 03:54:43;;;;;;;3.00;1.90;;;11.50;99.90;;;;;;5069541;28;20489;-74
2022/09/25 03:57:11;;;;;;;0.98;0.93;;;11.60;99.90;;;;;;5070819;28;20427;-74
2022/09/25 03:59:38;;;;;;;2.33;1.43;;;11.60;99.90;;;;;;5070983;28;20431;-75
2022/09/25 04:02:05;;;;;;;1.52;1.42;;;11.60;99.90;;;;;;5070925;28;20431;-75
2022/09/25 04:04:36;;;;;;;1.30;1.20;;;11.60;99.90;;;;;;5070305;28;20550;-75
2022/09/25 04:07:05;;;;;;;2.25;1.50;;;11.60;99.90;;;;;;5069662;28;20431;-76
2022/09/25 04:09:34;;;;;;;1.33;1.23;;;11.60;99.90;;;;;;5070984;28;20419;-76
2022/09/25 04:12:06;;;;;;;1.58;1.48;;;11.60;99.90;;;;;;5070588;28;20432;-75
2022/09/25 04:14:44;;;;;;;1.50;1.20;;;11.70;99.90;;;;;;5070344;28;20426;-76
2022/09/25 04:17:10;;;;;;;2.25;1.70;;;11.70;99.90;;;;;;5070744;28;20485;-76
2022/09/25 04:19:37;;;;;;;2.20;2.00;;;11.70;99.90;;;;;;5071024;28;20439;-76
2022/09/25 04:22:04;;;;;;;1.67;1.58;;;11.60;99.90;;;;;;5070618;28;20431;-76
2022/09/25 04:24:49;;;;;;;2.08;1.88;;;11.70;99.90;;;;;;5070145;28;20431;-76
2022/09/25 04:27:21;;;;;;;1.98;1.88;;;11.70;99.90;;;;;;5057456;28;20436;-76
2022/09/25 04:29:48;;;;;;;1.58;1.48;;;11.70;99.90;;;;;;5050737;28;20478;-76
2022/09/25 04:35:02;;;;;;;2.03;1.45;;;11.70;99.90;;;;;;5050494;28;20799;-76
2022/09/25 04:37:29;;;;;;;1.05;1.00;;;11.70;99.90;;;;;;5050794;28;20440;-76
2022/09/25 04:39:56;;;;;;;1.55;1.45;;;11.70;99.90;;;;;;5050520;28;20433;-76
2022/09/25 04:42:24;;;;;;;2.40;1.50;;;11.70;99.90;;;;;;5051211;28;20433;-76
2022/09/25 04:44:53;;;;;;;1.85;1.75;;;11.70;99.90;;;;;;5050408;28;20436;-76
2022/09/25 04:47:21;;;;;;;1.50;1.35;;;11.70;99.90;;;;;;5049497;28;20908;-76
2022/09/25 04:49:48;;;;;;;2.78;1.75;;;11.80;99.90;;;;;;5050482;28;20436;-76
2022/09/25 04:52:16;;;;;;;1.40;1.40;;;11.70;99.90;;;;;;5050900;28;20425;-76
2022/09/25 04:54:43;;;;;;;1.55;1.45;;;11.70;99.90;;;;;;5050413;28;20502;-76
2022/09/25 04:57:15;;;;;;;1.85;1.50;;;11.70;99.90;;;;;;5050871;28;20444;-76
2022/09/25 05:00:04;;;;;;;1.58;1.40;;;11.70;99.90;;;;;;5050989;28;20985;-76
2022/09/25 05:02:30;;;;;;;1.30;1.20;;;11.70;99.90;;;;;;5050609;28;20436;-76
2022/09/25 05:04:57;;;;;;;1.27;1.17;;;11.70;99.90;;;;;;5050005;28;20934;-76
2022/09/25 05:07:24;;;;;;;1.60;0.77;;;11.70;99.90;;;;;;5050324;28;20441;-76
2022/09/25 05:09:51;;;;;;;1.90;1.80;;;11.70;99.90;;;;;;5050365;28;20424;-76
2022/09/25 05:12:17;;;;;;;3.05;1.55;;;11.70;99.90;;;;;;5050537;28;20432;-76
2022/09/25 05:14:44;;;;;;;1.65;1.55;;;11.70;99.90;;;;;;5050204;28;20583;-76
2022/09/25 05:17:11;;;;;;;1.67;1.57;;;11.70;99.90;;;;;;5050648;28;20773;-76
2022/09/25 05:19:38;;;;;;;1.05;1.00;;;11.70;99.90;;;;;;5050122;28;20437;-76
2022/09/25 05:22:05;;;;;;;1.80;1.38;;;11.70;99.90;;;;;;5050324;28;21008;-76
2022/09/25 05:24:35;;;;;;;1.63;1.25;;;11.70;99.90;;;;;;5052391;28;21149;-76
2022/09/25 05:27:04;;;;;;;1.33;0.82;;;11.70;99.90;;;;;;5071270;28;20797;-76
2022/09/25 05:29:31;;;;;;;1.35;1.27;;;11.70;99.90;;;;;;5070795;28;20424;-76
2022/09/25 05:32:00;;;;;;;1.27;1.07;;;11.70;99.90;;;;;;5070826;28;20430;-76
2022/09/25 05:34:27;;;;;;;1.13;1.13;;;11.70;99.90;;;;;;5070359;28;20996;-76
2022/09/25 05:36:54;;;;;;;1.00;1.00;;;11.70;99.90;;;;;;5069907;28;20436;-76
2022/09/25 05:39:21;;;;;;;1.20;1.15;;;11.70;99.90;;;;;;5070097;28;20782;-76
2022/09/25 05:41:47;;;;;;;0.90;0.90;;;11.70;99.90;;;;;;5070702;28;20433;-76
2022/09/25 05:44:14;;;;;;;1.38;1.27;;;11.70;99.90;;;;;;5070283;28;20481;-76
2022/09/25 05:46:41;;;;;;;0.98;0.85;;;11.60;99.90;;;;;;5070385;28;20798;-76
2022/09/25 05:49:08;;;;;;;1.67;1.58;;;11.70;99.90;;;;;;5070540;28;20442;-76
2022/09/25 05:51:37;;;;;;;1.00;1.00;;;11.70;99.90;;;;;;5072285;28;20774;-76
2022/09/25 05:54:04;;;;;;;1.20;1.20;;;11.70;99.90;;;;;;5073739;28;20427;-76
2022/09/25 05:56:34;;;;;;;1.60;1.48;;;11.70;99.90;;;;;;5073703;28;20458;-76
2022/09/25 05:59:01;;;;;;;1.20;0.80;;;11.70;99.90;;;;;;5073909;28;20453;-76
2022/09/25 06:01:28;;;;;;;1.47;1.37;;;11.70;99.90;;;;;;5073797;28;20933;-76
2022/09/25 06:03:55;;;;;;;1.25;1.15;;;11.80;99.90;;;;;;5073447;28;20428;-76
2022/09/25 06:06:21;;;;;;;1.58;1.35;;;11.80;99.90;;;;;;5074411;28;20477;-76
2022/09/25 06:08:53;;;;;;;2.22;1.55;;;11.80;99.90;;;;;;5073181;28;20434;-76
2022/09/25 06:11:21;;;;;;;1.70;1.38;;;11.70;99.90;;;;;;5073485;28;20423;-76
2022/09/25 06:13:50;;;;;;;1.48;1.38;;;11.70;99.90;;;;;;5073079;28;20462;-76
2022/09/25 06:16:23;;;;;;;3.78;1.45;;;11.70;99.90;;;;;;5073691;28;20435;-76
2022/09/25 06:18:51;;;;;;;1.80;1.70;;;11.70;99.90;;;;;;5073448;28;20438;-76
2022/09/25 06:21:23;;;;;;;2.08;0.90;;;11.70;99.90;;;;;;5073828;28;20429;-76
2022/09/25 06:23:50;;;;;;;3.08;1.63;;;11.70;99.90;;;;;;5077524;28;20518;-76
2022/09/25 06:26:17;;;;;;;1.35;1.23;;;11.80;99.90;;;;;;5072770;28;20434;-76
2022/09/25 06:28:44;;;;;;;1.23;1.13;;;11.80;99.90;;;;;;5072120;28;20897;-76
2022/09/25 06:31:10;;;;;;;1.48;1.38;;;11.80;99.90;;;;;;5073016;28;20484;-77
2022/09/25 06:33:40;;;;;;;0.77;0.77;;;11.90;99.90;;;;;;5072799;28;20423;-76
2022/09/25 06:36:07;;;;;;;0.68;0.68;;;11.90;99.90;;;;;;5073196;28;20431;-76
2022/09/25 06:38:37;;;;;;;1.23;1.13;;;11.90;99.90;;;;;;5073124;28;20450;-76
2022/09/25 06:41:04;;;;;;;1.13;1.03;;;12.00;99.90;;;;;;5072616;28;20459;-76
2022/09/25 06:43:30;;;;;;;1.80;1.00;;;12.00;99.90;;;;;;5072503;28;20431;-76
2022/09/25 06:46:02;;;;;;;1.80;0.73;;;12.00;99.90;;;;;;5072590;28;20423;-76
2022/09/25 06:48:29;;;;;;;0.95;0.80;;;12.10;99.90;;;;;;5071302;28;20789;-76
2022/09/25 06:51:00;;;;;;;1.08;0.73;;;12.10;99.90;;;;;;5072561;28;20424;-76
2022/09/25 06:53:27;;;;;;;1.40;0.90;;;12.10;99.90;;;;;;5072135;28;20435;-76
2022/09/25 06:55:57;;;;;;;1.02;1.02;;;12.10;99.90;;;;;;5072648;28;20922;-76
2022/09/25 06:58:25;;;;;;;1.08;1.00;;;12.20;99.90;;;;;;5072970;28;20428;-76
2022/09/25 07:00:54;;;;;;;0.70;0.70;;;12.10;99.90;;;;;;5072556;28;20423;-77
2022/09/25 07:06:09;;;;;;;1.50;1.40;;;12.20;99.90;;;;;;5073211;28;20435;-76
2022/09/25 07:08:40;;;;;;;1.90;1.23;;;12.10;99.90;;;;;;5072757;28;20518;-76
2022/09/25 07:11:10;;;;;;;4.43;2.63;;;12.10;99.90;;;;;;5072903;28;20450;-76
2022/09/25 07:13:38;;;;;;;3.97;2.58;;;12.10;99.90;;;;;;5072243;28;20929;-76
2022/09/25 07:16:07;;;;;;;4.07;1.40;;;12.10;99.90;;;;;;5071992;28;20439;-75
2022/09/25 07:18:34;;;;;;;6.47;2.25;;;12.30;99.90;;;;;;5072364;28;20435;-76
2022/09/25 07:21:01;;;;;;;1.30;1.10;;;12.30;99.90;;;;;;5071119;28;20928;-76
2022/09/25 07:23:30;;;;;;;1.55;1.20;;;12.40;99.90;;;;;;5071592;28;20423;-75
2022/09/25 07:26:04;;;;;;;1.60;1.50;;;12.40;99.90;;;;;;5072259;28;20431;-76
2022/09/25 07:28:33;;;;;;;1.70;1.60;;;12.40;99.90;;;;;;5070441;28;20450;-75
2022/09/25 07:31:13;;;;;;;1.75;1.65;;;12.40;99.90;;;;;;5071897;28;20427;-76
2022/09/25 07:33:40;;;;;;;1.83;1.73;;;12.40;99.90;;;;;;5070695;28;20462;-75
2022/09/25 07:36:09;;;;;;;1.27;1.17;;;12.40;99.90;;;;;;5070796;28;20430;-75
2022/09/25 07:38:36;;;;;;;1.67;1.60;;;12.40;99.90;;;;;;5070180;28;20431;-75
2022/09/25 07:41:05;;;;;;;2.17;1.40;;;12.40;99.90;;;;;;5071767;28;20489;-76
2022/09/25 07:43:35;;;;;;;2.13;1.70;;;12.40;99.90;;;;;;5071336;28;20439;-75
2022/09/25 07:46:02;;;;;;;2.97;1.70;;;12.30;99.90;;;;;;5070279;28;20922;-75
2022/09/25 07:48:30;;;;;;;1.77;1.48;;;12.40;99.90;;;;;;5071331;28;20960;-75
2022/09/25 07:51:01;;;;;;;1.40;1.30;;;12.50;99.90;;;;;;5071327;28;20766;-75
2022/09/25 07:53:28;;;;;;;2.03;1.93;;;12.70;99.90;;;;;;5071388;28;20432;-75
2022/09/25 07:55:59;;;;;;;1.73;1.63;;;12.80;99.90;;;;;;5070914;28;20431;-75
2022/09/25 07:58:33;;;;;;;1.90;1.77;;;12.90;99.90;;;;;;5071221;28;20779;-75
2022/09/25 08:01:04;;;;;;;2.33;1.67;;;13.00;99.90;;;;;;5071340;28;20431;-75
2022/09/25 08:03:31;;;;;;;2.10;1.90;;;13.10;99.90;;;;;;5069960;28;20918;-76
2022/09/25 08:06:10;;;;;;;4.57;2.25;;;13.20;99.90;;;;;;5070789;28;20450;-76
2022/09/25 08:08:38;;;;;;;3.67;1.70;;;13.30;99.90;;;;;;5069616;28;20899;-75
2022/09/25 08:11:10;;;;;;;3.78;1.75;;;13.40;99.90;;;;;;5068971;28;20890;-76
2022/09/25 08:13:38;;;;;;;2.63;2.42;;;13.30;99.90;;;;;;5070908;28;20423;-75
2022/09/25 08:16:12;;;;;;;3.13;2.28;;;13.40;99.90;;;;;;5070479;28;20450;-77
2022/09/25 08:18:40;;;;;;;2.37;2.00;;;13.50;99.90;;;;;;5069918;28;20447;-77
2022/09/25 08:21:09;;;;;;;2.45;2.25;;;13.50;99.90;;;;;;5071285;28;20443;-77
2022/09/25 08:23:36;;;;;;;3.17;2.77;;;13.70;99.90;;;;;;5069523;28;20436;-78
2022/09/25 08:26:06;;;;;;;3.60;2.70;;;13.80;99.90;;;;;;5070833;28;20431;-77
2022/09/25 08:28:33;;;;;;;4.88;2.97;;;13.90;99.90;;;;;;5069753;28;20431;-76
2022/09/25 08:31:02;;;;;;;3.53;2.63;;;14.00;99.90;;;;;;5071169;28;20424;-77
2022/09/25 08:33:36;;;;;;;3.63;2.42;;;14.10;99.90;;;;;;5071143;28;20507;-78
2022/09/25 08:36:04;;;;;;;2.65;2.45;;;14.10;99.90;;;;;;5070472;28;20420;-78
2022/09/25 08:38:32;;;;;;;5.10;3.03;;;14.20;99.90;;;;;;5071465;28;20973;-78
2022/09/25 08:41:09;;;;;;;5.03;3.30;;;14.40;99.90;;;;;;5071244;28;20901;-78
2022/09/25 08:44:04;;;;;;;3.88;2.35;;;14.50;99.90;;;;;;5070893;28;20427;-78
2022/09/25 08:50:00;;;;;;;3.88;2.95;;;14.80;99.90;;;;;;5071229;28;20781;-79
2022/09/25 08:52:27;;;;;;;5.70;2.58;;;14.80;99.90;;;;;;5071557;28;20427;-79
2022/09/25 08:54:57;;;;;;;3.40;2.65;;;14.80;99.90;;;;;;5071427;28;20435;-78
2022/09/25 08:57:36;;;;;;;3.67;2.77;;;14.90;99.90;;;;;;5071022;28;20534;-80
2022/09/25 09:00:13;;;;;;;2.90;2.70;;;14.90;99.90;;;;;;5070508;28;20485;-79
2022/09/25 09:02:53;;;;;;;4.05;2.60;;;14.90;99.90;;;;;;5071139;28;20427;-79
2022/09/25 09:05:49;;;;;;;3.00;2.70;;;15.00;99.90;;;;;;5071428;28;20427;-78
2022/09/25 09:08:24;;;;;;;2.63;2.30;;;15.00;99.90;;;;;;5069810;28;20428;-78
2022/09/25 09:11:18;;;;;;;2.65;2.45;;;15.20;99.90;;;;;;5071186;28;20423;-78
2022/09/25 09:13:50;;;;;;;5.03;3.20;;;15.10;99.90;;;;;;5071119;28;20423;-79
2022/09/25 09:16:29;;;;;;;3.65;2.88;;;15.00;99.90;;;;;;5070668;28;20462;-78
2022/09/25 09:18:58;;;;;;;3.63;2.78;;;14.80;99.90;;;;;;5070694;28;20435;-79
2022/09/25 09:21:55;;;;;;;3.17;2.92;;;14.50;99.90;;;;;;5071180;28;20435;-80
2022/09/25 09:24:49;;;;;;;4.65;3.42;;;14.40;99.90;;;;;;5070887;28;20439;-78
2022/09/25 09:27:49;;;;;;;3.10;2.38;;;14.20;99.90;;;;;;5073512;28;20489;-78
2022/09/25 09:30:25;;;;;;;2.37;2.17;;;14.00;99.90;;;;;;5075377;28;20430;-79
2022/09/25 09:33:19;;;;;;;4.05;2.95;;;13.80;99.90;;;;;;5075098;28;20485;-78
2022/09/25 09:35:58;;;;;;;3.33;2.50;;;13.70;99.90;;;;;;5075281;28;20430;-80
2022/09/25 09:38:53;;;;;;;3.60;2.63;;;13.50;99.90;;;;;;5074857;28;20442;-80
2022/09/25 09:41:43;;;;;;;3.72;2.92;;;13.40;99.90;;;;;;5072580;28;20518;-79
2022/09/25 09:44:24;;;;;;;3.95;2.72;;;13.20;99.90;;;;;;5074198;28;20437;-79
2022/09/25 09:47:03;;;;;;;3.13;2.78;;;13.10;99.90;;;;;;5074730;28;20433;-79
2022/09/25 09:49:41;;;;;;;2.63;2.30;;;13.10;99.90;;;;;;5075194;28;21005;-79
2022/09/25 09:52:16;;;;;;;5.17;2.97;;;13.10;99.90;;;;;;5073418;28;20419;-79
2022/09/25 09:54:59;;;;;;;2.70;2.50;;;13.20;99.90;;;;;;5074441;28;20433;-79
2022/09/25 09:57:32;;;;;;;2.47;2.28;;;13.20;99.90;;;;;;5074733;28;20423;-79
2022/09/25 10:00:00;;;;;;;2.45;2.25;;;13.40;99.90;;;;;;5074948;28;20427;-79
2022/09/25 10:02:36;;;;;;;2.97;2.30;;;13.50;99.90;;;;;;5074601;28;20906;-80
2022/09/25 10:05:11;;;;;;;3.50;2.57;;;13.50;99.90;;;;;;5074414;28;20485;-78
2022/09/25 10:07:41;;;;;;;2.78;2.40;;;13.50;99.90;;;;;;5073361;28;20431;-81
2022/09/25 10:10:15;;;;;;;3.30;2.80;;;13.50;99.90;;;;;;5074415;28;20434;-80
2022/09/25 10:12:51;;;;;;;2.58;2.38;;;13.60;99.90;;;;;;5074430;28;20423;-79
2022/09/25 10:15:27;;;;;;;2.95;2.63;;;13.60;99.90;;;;;;5074130;28;20423;-79
2022/09/25 10:17:58;;;;;;;1.97;1.77;;;13.60;99.90;;;;;;5074593;28;20436;-81
2022/09/25 10:20:45;;;;;;;3.85;2.88;;;13.80;99.90;;;;;;5074358;28;20443;-78
2022/09/25 10:23:45;;;;;;;3.95;2.45;;;13.80;99.90;;;;;;5073594;28;20813;-79
2022/09/25 10:26:41;;;;;;;2.80;2.60;;;13.80;99.90;;;;;;5073981;28;20427;-79
2022/09/25 10:29:20;;;;;;;3.17;2.37;;;13.90;99.90;;;;;;5011968;28;20468;-80
2022/09/25 10:31:55;;;;;;;2.78;2.58;;;14.00;99.90;;;;;;5011619;28;20433;-80
2022/09/25 10:34:23;;;;;;;2.97;2.65;;;14.10;99.90;;;;;;4999275;28;20437;-80
2022/09/25 10:36:53;;;;;;;2.95;2.63;;;14.10;99.90;;;;;;4976647;28;20497;-79
2022/09/25 10:39:39;;;;;;;2.90;2.30;;;14.10;99.90;;;;;;4992415;28;20434;-79
2022/09/25 10:42:40;;;;;;;3.70;2.75;;;14.00;99.90;;;;;;4992293;28;20423;-79
2022/09/25 10:45:29;;;;;;;2.70;2.50;;;13.90;99.90;;;;;;4991728;28;20434;-78
2022/09/25 10:51:06;;;;;;;2.90;2.42;;;13.80;99.90;;;;;;4992170;28;20940;-79
2022/09/25 10:53:33;;;;;;;2.65;2.15;;;13.70;99.90;;;;;;4991431;28;20430;-79
2022/09/25 10:56:04;;;;;;;4.47;2.40;;;13.70;99.90;;;;;;4991970;28;20430;-79
2022/09/25 10:58:37;;;;;;;2.47;2.25;;;13.80;99.90;;;;;;4991615;28;20449;-79
2022/09/25 11:01:11;;;;;;;1.95;1.85;;;13.70;99.90;;;;;;4975868;28;21173;-78
2022/09/25 11:03:50;;;;;;;2.90;2.60;;;13.70;99.90;;;;;;4991664;28;21022;-79
2022/09/25 11:06:22;;;;;;;4.03;2.25;;;13.60;99.90;;;;;;5039313;28;20432;-79
2022/09/25 11:09:07;;;;;;;2.10;1.95;;;13.60;99.90;;;;;;5052024;28;20433;-79
2022/09/25 11:11:38;;;;;;;3.20;2.15;;;13.50;99.90;;;;;;5053112;28;20473;-81
2022/09/25 11:14:18;;;;;;;3.03;2.10;;;13.40;99.90;;;;;;5052835;28;20429;-80
2022/09/25 11:16:54;;;;;;;3.80;1.98;;;13.50;99.90;;;;;;5060684;28;20877;-79
2022/09/25 11:19:31;;;;;;;3.15;2.42;;;13.50;99.90;;;;;;5073148;28;20502;-79
2022/09/25 11:22:03;;;;;;;2.67;2.08;;;13.50;99.90;;;;;;5072867;28;20431;-79
2022/09/25 11:24:55;;;;;;;3.17;2.27;;;13.60;99.90;;;;;;5072730;28;20483;-79
2022/09/25 11:28:05;;;;;;;2.00;1.90;;;13.60;99.90;;;;;;5072568;28;20946;-78
2022/09/25 11:30:56;;;;;;;2.47;1.88;;;13.70;99.90;;;;;;5072541;28;20427;-79
2022/09/25 11:33:41;;;;;;;2.00;1.85;;;13.70;99.90;;;;;;5072247;28;20432;-78
2022/09/25 11:36:32;;;;;;;2.07;1.97;;;13.70;99.90;;;;;;5072248;28;20459;-80
2022/09/25 11:42:25;;;;;;;2.40;1.73;;;13.70;99.90;;;;;;5072361;28;20989;-79
2022/09/25 11:45:03;;;;;;;1.75;1.65;;;13.70;99.90;;;;;;5071971;28;20436;-79
2022/09/25 11:47:42;;;;;;;1.80;1.70;;;13.70;99.90;;;;;;5072564;28;20905;-79
2022/09/25 11:50:17;;;;;;;1.65;1.25;;;13.70;99.90;;;;;;5072230;28;20423;-78
2022/09/25 11:52:57;;;;;;;1.13;1.13;;;13.70;99.90;;;;;;5072237;28;20427;-79
2022/09/25 11:55:49;;;;;;;1.50;1.20;;;13.70;99.90;;;;;;5070812;28;20496;-79
2022/09/25 11:58:19;;;;;;;0.60;0.60;;;13.50;99.90;;;;;;5072144;28;20438;-80
2022/09/25 12:01:05;;;;;;;0.90;0.65;;;13.40;99.90;;;;;;5071909;28;20429;-78
2022/09/25 12:03:56;;;;;;;0.60;0.60;;;13.20;99.90;;;;;;5070249;28;20510;-79
2022/09/25 12:06:44;;;;;;;0.60;0.60;;;13.30;99.90;;;;;;5070498;28;20493;-78
2022/09/25 12:09:19;;;;;;;0.50;0.50;;;13.30;99.90;;;;;;5071700;28;20502;-79
2022/09/25 12:11:53;;;;;;;0.47;0.47;;;13.30;99.90;;;;;;5071841;28;20438;-80
2022/09/25 12:14:50;;;;;;;0.70;0.40;;;13.30;99.90;;;;;;5071301;28;21309;-78
2022/09/25 12:17:38;;;;;;;0.50;0.50;;;13.20;99.90;;;;;;5051556;28;20456;-78
2022/09/25 12:20:23;;;;;;;0.40;0.40;;;13.20;99.90;;;;;;5051493;28;20439;-79
2022/09/25 12:23:13;;;;;;;0.70;0.70;;;13.10;99.90;;;;;;5051820;28;20433;-76
2022/09/25 12:26:10;;;;;;;0.40;0.40;;;13.20;99.90;;;;;;5051278;28;20479;-78
2022/09/25 12:29:05;;;;;;;0.40;0.40;;;13.10;99.90;;;;;;5051701;28;20429;-77
2022/09/25 12:31:43;;;;;;;1.40;0.70;;;13.00;99.90;;;;;;5051659;28;20807;-79
2022/09/25 12:34:25;;;;;;;0.55;0.55;;;13.00;99.90;;;;;;5051299;28;20429;-78
2022/09/25 12:37:21;;;;;;;1.63;0.68;;;12.90;99.90;;;;;;5051808;28;21202;-77
2022/09/25 12:40:00;;;;;;;1.50;0.50;;;12.70;99.90;;;;;;5063493;28;20434;-77
2022/09/25 12:42:51;;;;;;;0.40;0.40;;;12.70;99.90;;;;;;5071136;28;20898;-77
2022/09/25 12:45:33;;;;;;;0.38;0.38;;;12.80;99.90;;;;;;5071218;28;20832;-78
2022/09/25 12:48:38;;;;;;;1.15;0.80;;;13.10;99.90;;;;;;5071449;28;20516;-78
2022/09/25 12:51:23;;;;;;;0.47;0.33;;;13.30;99.90;;;;;;5071498;28;20588;-78
2022/09/25 12:53:58;;;;;;;0.63;0.60;;;13.50;99.90;;;;;;5071223;28;20431;-77
2022/09/25 12:56:36;;;;;;;0.50;0.50;;;13.80;99.90;;;;;;5071645;28;20427;-78
2022/09/25 12:59:22;;;;;;;0.55;0.55;;;13.90;99.90;;;;;;5071574;28;20514;-78
2022/09/25 13:02:23;;;;;;;1.40;0.60;;;14.00;99.90;;;;;;5070587;28;20506;-77
2022/09/25 13:05:06;;;;;;;0.60;0.60;;;13.90;99.90;;;;;;5076305;28;20474;-78
2022/09/25 13:07:48;;;;;;;0.50;0.50;;;14.10;99.90;;;;;;5071519;28;20517;-78
2022/09/25 13:10:37;;;;;;;0.50;0.50;;;14.30;99.90;;;;;;5071576;28;20492;-78
2022/09/25 13:13:09;;;;;;;0.50;0.50;;;14.30;99.90;;;;;;5071323;28;20428;-79
2022/09/25 13:15:41;;;;;;;0.70;0.70;;;14.20;99.90;;;;;;5071333;28;20432;-78
2022/09/25 13:18:16;;;;;;;1.00;0.60;;;14.30;99.90;;;;;;5071384;28;20462;-78
2022/09/25 13:20:53;;;;;;;1.08;0.47;;;14.20;99.90;;;;;;5071562;28;20427;-78
2022/09/25 13:23:39;;;;;;;1.20;0.70;;;14.20;99.90;;;;;;5071144;28;20420;-78
2022/09/25 13:26:13;;;;;;;0.65;0.63;;;14.30;99.90;;;;;;5071321;28;20443;-78
2022/09/25 13:28:51;;;;;;;0.70;0.70;;;14.30;99.90;;;;;;5071338;28;20423;-78
2022/09/25 13:31:46;;;;;;;0.52;0.52;;;14.40;99.90;;;;;;5071636;28;20428;-79
2022/09/25 13:34:17;;;;;;;0.60;0.60;;;14.50;99.90;;;;;;5068791;28;20438;-78
2022/09/25 13:36:56;;;;;;;0.80;0.80;;;14.50;99.90;;;;;;5071262;28;20794;-78
2022/09/25 13:42:30;;;;;;;0.70;0.70;;;14.60;99.90;;;;;;5070980;28;20423;-78
2022/09/25 13:45:05;;;;;;;0.50;0.50;;;14.70;99.90;;;;;;5071312;28;20463;-80
2022/09/25 13:47:42;;;;;;;0.80;0.57;;;14.60;99.90;;;;;;5071176;28;21062;-78
2022/09/25 13:50:28;;;;;;;0.90;0.90;;;14.50;99.90;;;;;;5071233;28;20456;-79
2022/09/25 13:53:20;;;;;;;0.77;0.77;;;14.50;99.90;;;;;;5070778;28;20430;-79